createdAt,value
2019-06-26T00:00:48.751Z,99.90
2019-06-26T00:03:17.206Z,99.90
2019-06-26T00:05:45.735Z,99.90
2019-06-26T00:08:14.214Z,99.90
2019-06-26T00:10:42.738Z,99.90
2019-06-26T00:13:25.044Z,99.90
2019-06-26T00:15:41.387Z,99.90
2019-06-26T00:18:09.996Z,99.90
2019-06-26T00:20:38.598Z,99.90
2019-06-26T00:23:07.209Z,99.90
2019-06-26T00:25:35.655Z,99.90
2019-06-26T00:28:04.196Z,99.90
2019-06-26T00:30:32.647Z,99.90
2019-06-26T00:33:01.123Z,99.90
2019-06-26T00:35:29.662Z,99.90
2019-06-26T00:37:58.119Z,99.90
2019-06-26T00:40:26.584Z,99.90
2019-06-26T00:42:55.035Z,99.90
2019-06-26T00:45:23.584Z,99.90
2019-06-26T00:47:52.076Z,99.90
2019-06-26T00:50:20.840Z,99.90
2019-06-26T00:52:49.314Z,99.90
2019-06-26T00:55:17.993Z,99.90
2019-06-26T00:57:46.592Z,99.90
2019-06-26T01:00:15.291Z,99.90
2019-06-26T01:02:43.756Z,99.90
2019-06-26T01:05:13.420Z,99.90
2019-06-26T01:07:41.966Z,99.90
2019-06-26T01:10:13.071Z,99.90
2019-06-26T01:12:41.559Z,99.90
2019-06-26T01:15:10.923Z,99.90
2019-06-26T01:17:39.569Z,99.90
2019-06-26T01:20:08.543Z,99.90
2019-06-26T01:22:37.007Z,99.90
2019-06-26T01:25:05.981Z,99.90
2019-06-26T01:27:34.569Z,99.90
2019-06-26T01:30:04.580Z,99.90
2019-06-26T01:32:33.052Z,99.90
2019-06-26T01:35:01.565Z,99.90
2019-06-26T01:37:30.048Z,99.90
2019-06-26T01:39:58.525Z,99.90
2019-06-26T01:42:26.999Z,99.90
2019-06-26T01:44:55.480Z,99.90
2019-06-26T01:47:23.998Z,99.90
2019-06-26T01:49:52.555Z,99.90
2019-06-26T01:52:21.076Z,99.90
2019-06-26T01:54:49.553Z,99.90
2019-06-26T01:57:18.071Z,99.90
2019-06-26T01:59:46.543Z,99.90
2019-06-26T02:02:15.007Z,99.90
2019-06-26T02:04:43.550Z,99.90
2019-06-26T02:07:12.147Z,99.90
2019-06-26T02:09:40.817Z,99.90
2019-06-26T02:12:09.338Z,99.90
2019-06-26T02:14:37.812Z,99.90
2019-06-26T02:17:06.279Z,99.90
2019-06-26T02:19:34.803Z,99.90
2019-06-26T02:22:03.344Z,99.90
2019-06-26T02:24:31.943Z,99.90
2019-06-26T02:27:00.551Z,99.90
2019-06-26T02:29:29.028Z,99.90
2019-06-26T02:31:57.554Z,99.90
2019-06-26T02:34:26.096Z,99.90
2019-06-26T02:36:54.634Z,99.90
2019-06-26T02:39:23.178Z,99.90
2019-06-26T02:41:51.707Z,99.90
2019-06-26T02:44:20.250Z,99.90
2019-06-26T02:46:48.698Z,99.90
2019-06-26T02:49:17.164Z,99.90
2019-06-26T02:51:45.625Z,99.90
2019-06-26T02:54:14.095Z,99.90
2019-06-26T02:56:42.642Z,99.90
2019-06-26T02:59:11.167Z,99.90
2019-06-26T03:01:39.632Z,99.90
2019-06-26T03:04:08.214Z,99.90
2019-06-26T03:06:37.169Z,99.90
2019-06-26T03:09:07.269Z,99.90
2019-06-26T03:11:35.812Z,99.90
2019-06-26T03:14:04.412Z,99.90
2019-06-26T03:16:32.948Z,99.90
2019-06-26T03:19:01.526Z,99.90
2019-06-26T03:21:30.053Z,99.90
2019-06-26T03:23:58.587Z,99.90
2019-06-26T03:26:27.039Z,99.90
2019-06-26T03:28:55.591Z,99.90
2019-06-26T03:31:24.042Z,99.90
2019-06-26T03:33:52.505Z,99.90
2019-06-26T03:36:20.975Z,99.90
2019-06-26T03:38:49.495Z,99.90
2019-06-26T03:41:17.964Z,99.90
2019-06-26T03:43:46.443Z,99.90
2019-06-26T03:46:14.980Z,99.90
2019-06-26T03:48:43.447Z,99.90
2019-06-26T03:51:14.035Z,99.90
2019-06-26T03:53:42.095Z,99.90
2019-06-26T03:56:10.583Z,99.90
2019-06-26T03:58:39.125Z,99.90
2019-06-26T04:01:07.667Z,99.90
2019-06-26T04:03:36.188Z,99.90
2019-06-26T04:06:04.785Z,99.90
2019-06-26T04:08:33.247Z,99.90
2019-06-26T04:11:01.707Z,99.90
2019-06-26T04:13:30.251Z,99.90
2019-06-26T04:15:58.722Z,99.90
2019-06-26T04:18:27.250Z,99.90
2019-06-26T04:20:55.802Z,99.90
2019-06-26T04:23:24.335Z,99.90
2019-06-26T04:25:52.800Z,99.90
2019-06-26T04:28:21.699Z,99.90
2019-06-26T04:30:50.168Z,99.90
2019-06-26T04:33:18.704Z,99.90
2019-06-26T04:35:47.171Z,99.90
2019-06-26T04:38:15.641Z,99.90
2019-06-26T04:40:44.247Z,99.90
2019-06-26T04:43:12.720Z,99.90
2019-06-26T04:45:56.950Z,99.90
2019-06-26T04:48:11.443Z,99.90
2019-06-26T04:50:40.610Z,99.90
2019-06-26T04:53:09.147Z,99.90
2019-06-26T04:55:37.626Z,99.90
2019-06-26T04:58:06.222Z,99.90
2019-06-26T05:00:34.707Z,99.90
2019-06-26T05:03:03.227Z,99.90
2019-06-26T05:05:39.591Z,99.90
2019-06-26T05:08:01.892Z,99.90
2019-06-26T05:10:30.418Z,99.90
2019-06-26T05:12:58.977Z,99.90
2019-06-26T05:15:27.506Z,99.90
2019-06-26T05:17:56.064Z,99.90
2019-06-26T05:20:24.571Z,99.90
2019-06-26T05:22:53.040Z,99.90
2019-06-26T05:25:21.491Z,99.90
2019-06-26T05:27:49.963Z,99.90
2019-06-26T05:30:19.056Z,99.90
2019-06-26T05:32:47.556Z,99.90
2019-06-26T05:35:18.162Z,99.90
2019-06-26T05:37:46.624Z,99.90
2019-06-26T05:40:15.378Z,99.90
2019-06-26T05:42:43.896Z,99.90
2019-06-26T05:45:13.309Z,99.90
2019-06-26T05:47:41.827Z,99.90
2019-06-26T05:50:11.291Z,99.90
2019-06-26T05:52:42.560Z,99.90
2019-06-26T05:55:10.585Z,99.90
2019-06-26T05:57:41.768Z,99.90
2019-06-26T06:00:10.562Z,99.90
2019-06-26T06:02:39.303Z,99.90
2019-06-26T06:05:27.107Z,99.90
2019-06-26T06:07:55.629Z,99.90
2019-06-26T06:10:24.227Z,99.90
2019-06-26T06:12:52.841Z,99.90
2019-06-26T06:15:21.519Z,99.90
2019-06-26T06:17:49.987Z,99.90
2019-06-26T06:20:24.008Z,99.90
2019-06-26T06:22:52.476Z,99.90
2019-06-26T06:25:21.015Z,99.90
2019-06-26T06:27:49.499Z,99.90
2019-06-26T06:30:18.230Z,99.90
2019-06-26T06:32:46.926Z,99.90
2019-06-26T06:35:15.455Z,99.90
2019-06-26T06:37:44.006Z,99.90
2019-06-26T06:40:12.979Z,99.90
2019-06-26T06:42:41.511Z,99.90
2019-06-26T06:45:10.199Z,99.90
2019-06-26T06:47:38.671Z,99.90
2019-06-26T06:50:07.197Z,99.90
2019-06-26T06:52:35.770Z,99.90
2019-06-26T06:55:05.975Z,99.90
2019-06-26T06:57:34.467Z,99.90
2019-06-26T07:00:03.486Z,99.90
2019-06-26T07:02:31.932Z,99.90
2019-06-26T07:05:00.551Z,99.90
2019-06-26T07:07:29.015Z,99.90
2019-06-26T07:09:57.473Z,99.90
2019-06-26T07:12:26.080Z,99.90
2019-06-26T07:14:54.535Z,99.90
2019-06-26T07:17:23.007Z,99.90
2019-06-26T07:19:51.531Z,99.90
2019-06-26T07:22:19.984Z,99.90
2019-06-26T07:24:48.529Z,99.90
2019-06-26T07:27:17.075Z,99.90
2019-06-26T07:29:45.543Z,99.90
2019-06-26T07:32:14.009Z,99.90
2019-06-26T07:34:42.536Z,99.90
2019-06-26T07:37:11.005Z,99.90
2019-06-26T07:39:39.543Z,99.90
2019-06-26T07:42:08.072Z,99.90
2019-06-26T07:44:36.707Z,99.90
2019-06-26T07:47:12.660Z,99.90
2019-06-26T07:49:35.428Z,99.90
2019-06-26T07:52:04.059Z,99.90
2019-06-26T07:54:32.579Z,99.90
2019-06-26T07:57:01.053Z,99.90
2019-06-26T07:59:29.508Z,99.90
2019-06-26T08:01:57.978Z,99.90
2019-06-26T08:04:26.427Z,99.90
2019-06-26T08:06:54.968Z,99.90
2019-06-26T08:09:23.446Z,99.90
2019-06-26T08:11:51.956Z,99.90
2019-06-26T08:14:20.487Z,99.90
2019-06-26T08:16:48.952Z,99.90
2019-06-26T08:19:17.485Z,99.90
2019-06-26T08:21:46.890Z,99.90
2019-06-26T08:24:15.560Z,99.90
2019-06-26T08:26:44.099Z,99.90
2019-06-26T08:29:12.623Z,99.90
2019-06-26T08:31:41.090Z,99.90
2019-06-26T08:34:09.575Z,99.90
2019-06-26T08:36:38.095Z,99.90
2019-06-26T08:39:07.306Z,99.90
2019-06-26T08:41:35.775Z,99.90
2019-06-26T08:44:04.302Z,99.90
2019-06-26T08:46:32.755Z,99.90
2019-06-26T08:49:01.277Z,99.90
2019-06-26T08:51:29.851Z,99.90
2019-06-26T08:53:58.316Z,99.90
2019-06-26T08:56:26.759Z,99.90
2019-06-26T08:58:55.219Z,99.90
2019-06-26T09:01:23.687Z,99.90
2019-06-26T09:03:52.139Z,99.90
2019-06-26T09:06:20.616Z,99.90
2019-06-26T09:08:49.148Z,99.90
2019-06-26T09:11:17.694Z,99.90
2019-06-26T09:13:46.221Z,99.90
2019-06-26T09:16:14.769Z,99.90
2019-06-26T09:18:43.303Z,99.90
2019-06-26T09:21:11.831Z,99.90
2019-06-26T09:23:40.315Z,99.90
2019-06-26T09:26:08.775Z,99.90
2019-06-26T09:28:37.358Z,99.90
2019-06-26T09:31:05.816Z,99.90
2019-06-26T09:33:34.292Z,99.90
2019-06-26T09:36:06.648Z,99.90
2019-06-26T09:38:52.397Z,99.90
2019-06-26T09:41:20.935Z,99.90
2019-06-26T09:43:49.387Z,99.90
2019-06-26T09:46:17.921Z,99.90
2019-06-26T09:48:52.547Z,99.90
2019-06-26T09:51:16.549Z,99.90
2019-06-26T09:53:47.446Z,99.90
2019-06-26T09:56:15.191Z,99.90
2019-06-26T09:58:43.707Z,99.90
2019-06-26T10:01:12.167Z,99.90
2019-06-26T10:03:40.619Z,99.90
2019-06-26T10:06:09.091Z,99.90
2019-06-26T10:08:37.607Z,99.90
2019-06-26T10:11:07.490Z,99.90
2019-06-26T10:13:36.088Z,99.90
2019-06-26T10:16:04.760Z,99.90
2019-06-26T10:18:33.269Z,99.90
2019-06-26T10:21:01.863Z,99.90
2019-06-26T10:23:30.408Z,99.90
2019-06-26T10:25:58.868Z,99.90
2019-06-26T10:28:27.328Z,99.90
2019-06-26T10:30:55.870Z,99.90
2019-06-26T10:33:24.643Z,99.90
2019-06-26T10:35:53.263Z,99.90
2019-06-26T10:38:21.796Z,99.90
2019-06-26T10:40:50.319Z,99.90
2019-06-26T10:43:18.775Z,99.90
2019-06-26T10:45:47.239Z,99.90
2019-06-26T10:48:15.699Z,99.10
2019-06-26T10:50:51.056Z,99.90
2019-06-26T10:53:14.337Z,99.50
2019-06-26T10:55:43.671Z,99.90
2019-06-26T10:58:12.130Z,99.90
2019-06-26T11:00:40.733Z,99.90
2019-06-26T11:03:09.254Z,98.30
2019-06-26T11:05:37.716Z,96.60
2019-06-26T11:08:06.320Z,97.90
2019-06-26T11:10:34.936Z,98.90
2019-06-26T11:13:03.462Z,99.10
2019-06-26T11:15:32.071Z,95.60
2019-06-26T11:18:00.573Z,99.80
2019-06-26T11:20:29.073Z,99.90
2019-06-26T11:22:57.556Z,95.60
2019-06-26T11:25:26.056Z,98.40
2019-06-26T11:27:54.584Z,96.20
2019-06-26T11:30:23.627Z,95.70
2019-06-26T11:32:52.148Z,95.80
2019-06-26T11:35:20.670Z,95.50
2019-06-26T11:37:49.222Z,96.80
2019-06-26T11:40:18.292Z,96.90
2019-06-26T11:42:46.760Z,96.80
2019-06-26T11:45:15.523Z,97.80
2019-06-26T11:47:45.897Z,99.30
2019-06-26T11:50:14.899Z,97.70
2019-06-26T11:52:43.359Z,98.30
2019-06-26T11:55:12.559Z,98.50
2019-06-26T11:57:41.080Z,98.80
2019-06-26T12:00:12.287Z,98.30
2019-06-26T12:02:40.753Z,99.90
2019-06-26T12:05:10.143Z,99.90
2019-06-26T12:07:38.734Z,98.40
2019-06-26T12:10:08.737Z,99.90
2019-06-26T12:12:37.350Z,99.10
2019-06-26T12:15:07.309Z,99.60
2019-06-26T12:17:35.782Z,98.50
2019-06-26T12:20:17.846Z,99.80
2019-06-26T12:22:35.924Z,99.90
2019-06-26T12:25:05.818Z,99.90
2019-06-26T12:27:34.348Z,99.80
2019-06-26T12:30:04.238Z,99.90
2019-06-26T12:32:41.802Z,99.40
2019-06-26T12:35:03.985Z,99.90
2019-06-26T12:37:37.470Z,99.90
2019-06-26T12:40:03.426Z,99.90
2019-06-26T12:42:31.943Z,99.90
2019-06-26T12:45:00.473Z,99.90
2019-06-26T12:47:28.931Z,99.90
2019-06-26T12:49:57.384Z,99.90
2019-06-26T12:52:25.849Z,99.90
2019-06-26T12:54:54.296Z,99.90
2019-06-26T12:57:22.758Z,99.90
2019-06-26T12:59:57.299Z,99.90
2019-06-26T13:02:21.531Z,99.90
2019-06-26T13:04:49.988Z,99.90
2019-06-26T13:07:18.541Z,99.90
2019-06-26T13:09:47.132Z,99.90
2019-06-26T13:12:15.648Z,99.90
2019-06-26T13:14:44.111Z,99.90
2019-06-26T13:17:12.643Z,99.90
2019-06-26T13:19:41.143Z,99.90
2019-06-26T13:22:09.671Z,99.90
2019-06-26T13:24:38.185Z,99.90
2019-06-26T13:27:06.705Z,99.90
2019-06-26T13:29:35.171Z,99.90
2019-06-26T13:32:03.729Z,99.90
2019-06-26T13:34:32.243Z,99.90
2019-06-26T13:37:00.809Z,99.90
2019-06-26T13:39:29.304Z,99.90
2019-06-26T13:41:57.767Z,99.90
2019-06-26T13:44:26.221Z,99.90
2019-06-26T13:46:54.688Z,99.90
2019-06-26T13:49:23.211Z,99.90
2019-06-26T13:51:51.760Z,99.90
2019-06-26T13:54:20.272Z,99.90
2019-06-26T13:56:48.739Z,99.90
2019-06-26T13:59:17.217Z,99.90
2019-06-26T14:01:45.754Z,99.90
2019-06-26T14:04:14.204Z,99.90
2019-06-26T14:06:42.801Z,99.90
2019-06-26T14:09:11.272Z,99.90
2019-06-26T14:11:39.715Z,99.90
2019-06-26T14:14:08.189Z,99.90
2019-06-26T14:16:36.737Z,99.90
2019-06-26T14:19:05.311Z,99.90
2019-06-26T14:21:33.787Z,99.90
2019-06-26T14:24:02.342Z,99.90
2019-06-26T14:26:30.864Z,99.90
2019-06-26T14:28:59.341Z,99.90
2019-06-26T14:31:27.850Z,99.90
2019-06-26T14:33:56.316Z,99.90
2019-06-26T14:36:24.759Z,99.90
2019-06-26T14:38:53.223Z,99.90
2019-06-26T14:41:21.686Z,99.90
2019-06-26T14:43:50.144Z,99.90
2019-06-26T14:46:30.751Z,99.90
2019-06-26T14:48:59.297Z,99.90
2019-06-26T14:51:41.186Z,99.90
2019-06-26T14:53:57.931Z,99.90
2019-06-26T14:56:26.396Z,99.90
2019-06-26T14:58:54.915Z,99.90
2019-06-26T15:01:23.391Z,99.90
2019-06-26T15:03:51.923Z,99.90
2019-06-26T15:06:20.455Z,99.90
2019-06-26T15:08:48.914Z,99.90
2019-06-26T15:11:17.364Z,99.90
2019-06-26T15:13:45.823Z,99.90
2019-06-26T15:16:14.344Z,99.90
2019-06-26T15:18:42.914Z,99.90
2019-06-26T15:21:11.372Z,99.90
2019-06-26T15:23:39.888Z,99.90
2019-06-26T15:26:08.359Z,99.90
2019-06-26T15:28:36.871Z,99.90
2019-06-26T15:31:05.410Z,99.90
2019-06-26T15:33:36.601Z,99.90
2019-06-26T15:36:04.121Z,99.90
2019-06-26T15:38:32.637Z,99.90
2019-06-26T15:41:01.116Z,99.90
2019-06-26T15:43:29.640Z,99.90
2019-06-26T15:45:58.095Z,99.90
2019-06-26T15:48:26.632Z,99.90
2019-06-26T15:50:55.085Z,99.90
2019-06-26T15:53:23.628Z,99.90
2019-06-26T15:55:52.194Z,99.90
2019-06-26T15:58:20.636Z,99.90
2019-06-26T16:00:49.101Z,99.90
2019-06-26T16:03:17.549Z,99.50
2019-06-26T16:05:46.038Z,97.60
2019-06-26T16:08:14.555Z,98.00
2019-06-26T16:10:43.368Z,95.60
2019-06-26T16:13:11.896Z,93.90
2019-06-26T16:15:40.430Z,93.30
2019-06-26T16:18:10.658Z,93.70
2019-06-26T16:20:39.197Z,91.50
2019-06-26T16:23:07.710Z,91.00
2019-06-26T16:25:36.180Z,90.90
2019-06-26T16:28:06.075Z,91.20
2019-06-26T16:30:34.838Z,88.70
2019-06-26T16:33:03.409Z,84.90
2019-06-26T16:35:31.858Z,85.50
2019-06-26T16:38:00.319Z,85.30
2019-06-26T16:40:28.775Z,83.60
2019-06-26T16:42:57.234Z,83.50
2019-06-26T16:45:25.774Z,88.40
2019-06-26T16:47:54.359Z,79.40
2019-06-26T16:50:22.815Z,79.80
2019-06-26T16:52:51.262Z,82.00
2019-06-26T16:55:19.747Z,79.30
2019-06-26T16:57:48.195Z,80.70
2019-06-26T17:00:18.637Z,79.40
2019-06-26T17:02:47.087Z,80.30
2019-06-26T17:05:16.195Z,82.40
2019-06-26T17:07:44.661Z,81.40
2019-06-26T17:10:13.573Z,81.70
2019-06-26T17:12:42.168Z,80.10
2019-06-26T17:15:11.651Z,82.20
2019-06-26T17:17:40.116Z,84.10
2019-06-26T17:20:09.246Z,86.10
2019-06-26T17:22:37.798Z,87.70
2019-06-26T17:25:07.284Z,89.40
2019-06-26T17:27:35.959Z,90.00
2019-06-26T17:30:06.451Z,90.50
2019-06-26T17:32:34.933Z,90.40
2019-06-26T17:35:05.116Z,90.60
2019-06-26T17:37:33.706Z,90.00
2019-06-26T17:40:02.228Z,91.60
2019-06-26T17:42:30.699Z,90.40
2019-06-26T17:44:59.159Z,91.20
2019-06-26T17:47:27.699Z,91.60
2019-06-26T17:49:56.215Z,92.50
2019-06-26T17:52:24.663Z,92.90
2019-06-26T17:54:53.122Z,93.10
2019-06-26T17:57:21.630Z,94.20
2019-06-26T17:59:50.135Z,94.80
2019-06-26T18:02:18.652Z,96.60
2019-06-26T18:04:47.098Z,97.60
2019-06-26T18:07:15.567Z,99.50
2019-06-26T18:09:44.032Z,99.90
2019-06-26T18:12:12.567Z,99.90
2019-06-26T18:14:43.246Z,99.90
2019-06-26T18:17:21.685Z,99.90
2019-06-26T18:19:41.396Z,99.90
2019-06-26T18:22:09.863Z,99.90
2019-06-26T18:24:57.668Z,99.90
2019-06-26T18:27:26.131Z,99.90
2019-06-26T18:29:54.599Z,99.90
2019-06-26T18:32:23.076Z,99.90
2019-06-26T18:34:51.541Z,99.90
2019-06-26T18:37:19.992Z,99.90
2019-06-26T18:39:48.522Z,99.90
2019-06-26T18:42:17.003Z,99.90
2019-06-26T18:44:45.527Z,99.90
2019-06-26T18:47:14.012Z,99.90
2019-06-26T18:49:42.539Z,99.90
2019-06-26T18:52:11.009Z,99.90
2019-06-26T18:54:39.480Z,99.90
2019-06-26T18:57:08.040Z,99.90
2019-06-26T18:59:36.508Z,99.90
2019-06-26T19:02:05.057Z,99.90
2019-06-26T19:04:33.563Z,99.90
2019-06-26T19:07:02.035Z,99.90
2019-06-26T19:09:30.635Z,99.90
2019-06-26T19:11:59.228Z,99.90
2019-06-26T19:14:27.699Z,99.90
2019-06-26T19:16:56.172Z,99.90
2019-06-26T19:19:24.698Z,99.90
2019-06-26T19:21:53.167Z,99.90
2019-06-26T19:24:21.703Z,99.90
2019-06-26T19:26:50.167Z,99.90
2019-06-26T19:29:18.635Z,99.90
2019-06-26T19:31:47.111Z,99.90
2019-06-26T19:34:15.864Z,99.90
2019-06-26T19:36:49.950Z,99.90
2019-06-26T19:39:14.520Z,99.90
2019-06-26T19:41:43.017Z,99.90
2019-06-26T19:44:11.544Z,99.90
2019-06-26T19:46:41.983Z,99.90
2019-06-26T19:49:10.266Z,99.90
2019-06-26T19:51:38.721Z,99.90
2019-06-26T19:54:22.775Z,99.90
2019-06-26T19:56:39.339Z,99.90
2019-06-26T19:59:08.257Z,99.90
2019-06-26T20:01:37.166Z,99.90
2019-06-26T20:04:06.214Z,99.90
2019-06-26T20:06:35.087Z,99.90
2019-06-26T20:09:04.616Z,99.90
2019-06-26T20:11:33.577Z,99.90
2019-06-26T20:14:02.164Z,99.90
2019-06-26T20:16:31.337Z,99.90
2019-06-26T20:19:00.247Z,99.90
2019-06-26T20:21:28.902Z,99.90
2019-06-26T20:23:57.893Z,99.90
2019-06-26T20:26:26.781Z,99.90
2019-06-26T20:28:55.452Z,99.90
2019-06-26T20:31:25.309Z,99.90
2019-06-26T20:33:54.321Z,99.90
2019-06-26T20:36:23.112Z,99.90
2019-06-26T20:38:52.078Z,99.90
2019-06-26T20:41:20.620Z,99.90
2019-06-26T20:43:49.159Z,99.90
2019-06-26T20:46:17.611Z,99.90
2019-06-26T20:48:46.078Z,99.90
2019-06-26T20:51:14.532Z,99.90
2019-06-26T20:53:43.084Z,99.90
2019-06-26T20:56:11.531Z,99.90
2019-06-26T20:58:40.068Z,99.90
2019-06-26T21:01:08.543Z,99.90
2019-06-26T21:03:36.996Z,99.90
2019-06-26T21:06:05.530Z,99.90
2019-06-26T21:08:34.025Z,99.90
2019-06-26T21:11:02.545Z,99.90
2019-06-26T21:13:30.998Z,99.90
2019-06-26T21:15:59.466Z,99.90
2019-06-26T21:18:27.922Z,99.90
2019-06-26T21:20:56.419Z,99.90
2019-06-26T21:23:24.877Z,99.90
2019-06-26T21:25:53.413Z,99.90
2019-06-26T21:28:21.894Z,99.90
2019-06-26T21:30:50.404Z,99.90
2019-06-26T21:33:18.897Z,99.90
2019-06-26T21:35:47.416Z,99.90
2019-06-26T21:38:15.964Z,99.90
2019-06-26T21:40:44.492Z,99.90
2019-06-26T21:43:13.034Z,99.90
2019-06-26T21:45:41.495Z,99.90
2019-06-26T21:48:09.971Z,99.90
2019-06-26T21:50:38.515Z,99.90
2019-06-26T21:53:07.052Z,99.90
2019-06-26T21:55:35.501Z,99.90
2019-06-26T21:58:04.004Z,99.90
2019-06-26T22:00:34.223Z,99.90
2019-06-26T22:03:02.839Z,99.90
2019-06-26T22:05:31.447Z,99.90
2019-06-26T22:07:59.899Z,99.90
2019-06-26T22:10:28.507Z,99.90
2019-06-26T22:12:57.032Z,99.90
2019-06-26T22:15:25.559Z,99.90
2019-06-26T22:17:54.095Z,99.90
2019-06-26T22:20:22.688Z,99.90
2019-06-26T22:22:51.159Z,99.90
2019-06-26T22:25:19.759Z,99.90
2019-06-26T22:27:48.436Z,99.90
2019-06-26T22:30:17.527Z,99.90
2019-06-26T22:32:46.067Z,99.90
2019-06-26T22:35:15.167Z,99.90
2019-06-26T22:37:43.622Z,99.90
2019-06-26T22:40:12.228Z,99.90
2019-06-26T22:42:40.830Z,99.90
2019-06-26T22:45:09.555Z,99.90
2019-06-26T22:47:38.011Z,99.90
2019-06-26T22:50:08.109Z,99.90
2019-06-26T22:52:36.753Z,99.90
2019-06-26T22:55:06.814Z,99.90
2019-06-26T22:57:35.500Z,99.90
2019-06-26T23:00:06.781Z,99.90
2019-06-26T23:02:54.668Z,99.90
2019-06-26T23:05:23.213Z,99.90
2019-06-26T23:07:51.737Z,99.90
2019-06-26T23:10:20.745Z,99.90
2019-06-26T23:12:49.205Z,99.90
2019-06-26T23:15:17.916Z,99.90
2019-06-26T23:17:46.516Z,99.90
2019-06-26T23:20:15.062Z,99.90
2019-06-26T23:22:43.524Z,99.90
2019-06-26T23:25:12.740Z,99.90
2019-06-26T23:27:41.345Z,99.90
2019-06-26T23:30:15.783Z,99.90
2019-06-26T23:32:44.244Z,99.90
2019-06-26T23:35:12.955Z,99.90
2019-06-26T23:37:41.552Z,99.90
2019-06-26T23:40:10.152Z,99.90
2019-06-26T23:42:39.029Z,99.90
2019-06-26T23:45:11.082Z,99.90
2019-06-26T23:47:39.656Z,99.90
2019-06-26T23:50:08.185Z,99.90
2019-06-26T23:52:36.731Z,99.90
2019-06-26T23:55:07.396Z,99.90
2019-06-26T23:57:35.873Z,99.90
